Asukamaru — JG5536 — position and weather

sailwx.info

Track history (hours):
 
Tides and Currents Weather Stations Pressure Air Temp Water Temp Dewpoint Dewpoint Depression Visibility Wind Speed Wind Dir Waves Ship Positions

Asukamaru

Last reported at 2017-Feb-26 07:33 UTC. Time now 2017-Feb-26 07:49 UTC.
Position N 35°38' E 139°45'.

Length 31 m; draft 3 m.

Type: Tug. MMSI: 431001145.

Date/timePositionNaut miles runAvg speedWind from/ knotsBaromVisibWave heightAir tempDewpointWater temp
2017-Feb-26 07:33N 35°38' E 139°45'0 0.0
2017-Feb-26 06:33N 35°38' E 139°45'0 0.0
2017-Feb-26 05:33N 35°38' E 139°45'0 0.0
2017-Feb-26 04:33N 35°38' E 139°45'0 0.0
2017-Feb-26 03:33N 35°38' E 139°45'0 0.0
2017-Feb-26 02:33N 35°38' E 139°45'0 0.0
2017-Feb-26 01:33N 35°38' E 139°45'0 0.0
2017-Feb-26 00:33N 35°38' E 139°45'0 0.0
2017-Feb-25 23:33N 35°38' E 139°45'0 0.0
2017-Feb-25 22:33N 35°38' E 139°45'2 1.7
2017-Feb-25 21:33N 35°37' E 139°46'2 1.6
2017-Feb-25 20:34N 35°38' E 139°45'0 0.1
2017-Feb-25 19:33N 35°38' E 139°45'0 0.0
2017-Feb-25 18:33N 35°38' E 139°45'0 0.0
2017-Feb-25 17:33N 35°38' E 139°45'0 0.0
2017-Feb-25 16:24N 35°38' E 139°45'0 0.0
2017-Feb-25 14:07N 35°38' E 139°45'0 0.0
2017-Feb-25 13:19N 35°38' E 139°45'0 0.0
2017-Feb-25 12:31N 35°38' E 139°45'0 0.0
2017-Feb-25 11:33N 35°38' E 139°45'0 0.0
2017-Feb-25 10:33N 35°38' E 139°45'0 0.0
2017-Feb-25 09:33N 35°38' E 139°45'0 0.0
2017-Feb-25 08:33N 35°38' E 139°45'0 0.0
2017-Feb-25 07:33N 35°38' E 139°45'0 0.0
2017-Feb-25 06:33N 35°38' E 139°45'0 0.0
2017-Feb-25 05:33N 35°38' E 139°45'0 0.0
2017-Feb-25 04:33N 35°38' E 139°45'0 0.0
2017-Feb-25 03:33N 35°38' E 139°45'0 0.0
2017-Feb-25 02:33N 35°38' E 139°45'0 0.0
2017-Feb-25 01:33N 35°38' E 139°45'0 0.0
2017-Feb-25 00:33N 35°38' E 139°45'0 0.0
2017-Feb-24 23:33N 35°38' E 139°45'0 0.0
2017-Feb-24 22:33N 35°38' E 139°45'0 0.0
2017-Feb-24 21:33N 35°38' E 139°45'0 0.0
2017-Feb-24 20:33N 35°38' E 139°45'0 0.0
2017-Feb-24 19:30N 35°38' E 139°45'0 0.0
2017-Feb-24 18:33N 35°38' E 139°45'0 0.0
2017-Feb-24 17:33N 35°38' E 139°45'0 0.0
2017-Feb-24 16:33N 35°38' E 139°45'0 0.0
2017-Feb-24 15:33N 35°38' E 139°45'0 0.0
2017-Feb-24 14:33N 35°38' E 139°45'0 0.0
2017-Feb-24 13:30N 35°38' E 139°45'0 0.0
2017-Feb-24 11:33N 35°38' E 139°45'0 0.0
2017-Feb-24 10:33N 35°38' E 139°45'0 0.0
2017-Feb-24 09:31N 35°38' E 139°45'0 0.0
2017-Feb-24 08:33N 35°38' E 139°45'0 0.0
2017-Feb-24 07:33N 35°38' E 139°45'0 0.0
2017-Feb-24 06:27N 35°38' E 139°45'0 0.0
2017-Feb-24 05:33N 35°38' E 139°45'0 0.0
2017-Feb-24 04:30N 35°38' E 139°45'0 0.0
2017-Feb-24 03:32N 35°38' E 139°45'0 0.0
2017-Feb-24 02:32N 35°38' E 139°45'0 0.0
2017-Feb-24 01:33N 35°38' E 139°45'0 0.0
2017-Feb-24 00:33N 35°38' E 139°45'2 2.3
2017-Feb-23 23:33N 35°37' E 139°48'1 0.9
2017-Feb-23 22:33N 35°36' E 139°47'3 2.7
2017-Feb-23 21:33N 35°34' E 139°48'5 4.8
2017-Feb-23 20:33N 35°38' E 139°45'0 0.0
2017-Feb-23 19:32N 35°38' E 139°45'0 0.0
2017-Feb-23 18:33N 35°38' E 139°45'0 0.0
2017-Feb-23 17:33N 35°38' E 139°45'0 0.0
2017-Feb-23 16:33N 35°38' E 139°45'0 0.0
2017-Feb-23 15:33N 35°38' E 139°45'0 0.0
2017-Feb-23 14:32N 35°38' E 139°45'3 3.0
2017-Feb-23 13:33N 35°36' E 139°47'1 1.4
2017-Feb-23 12:33N 35°37' E 139°46'2 1.6
2017-Feb-23 11:33N 35°38' E 139°45'0 0.0
2017-Feb-23 10:33N 35°38' E 139°45'0 0.0
2017-Feb-23 09:33N 35°38' E 139°45'0 0.0
2017-Feb-23 08:32N 35°38' E 139°45'0 0.0
2017-Feb-23 07:33N 35°38' E 139°45'0 0.0
2017-Feb-23 06:32N 35°38' E 139°45'0 0.0
2017-Feb-23 05:31N 35°38' E 139°46'0 0.1
2017-Feb-23 04:33N 35°38' E 139°45'0 0.0
2017-Feb-23 03:27N 35°38' E 139°45'0 0.0
2017-Feb-23 02:33N 35°38' E 139°45'0 0.0
2017-Feb-23 01:33N 35°38' E 139°45'0 0.0
2017-Feb-23 00:33N 35°38' E 139°45'0 0.0
2017-Feb-22 23:33N 35°38' E 139°45'2 2.1
2017-Feb-22 22:33N 35°36' E 139°47'1 1.0
2017-Feb-22 21:33N 35°35' E 139°47'1 0.9
2017-Feb-22 20:33N 35°36' E 139°46'2 2.0
2017-Feb-22 19:33N 35°38' E 139°45'0 0.0
2017-Feb-22 18:33N 35°38' E 139°45'0 0.0
2017-Feb-22 17:33N 35°38' E 139°45'0 0.0
2017-Feb-22 16:33N 35°38' E 139°45'0 0.0
2017-Feb-22 15:31N 35°38' E 139°45'0 0.0
2017-Feb-22 14:24N 35°38' E 139°45'0 0.0
2017-Feb-22 12:23N 35°38' E 139°45'0 0.0
2017-Feb-22 11:32N 35°38' E 139°45'0 0.0
2017-Feb-22 10:33N 35°38' E 139°45'2 2.1
2017-Feb-22 09:33N 35°36' E 139°46'1 0.9
2017-Feb-22 08:33N 35°35' E 139°47'1 0.9
2017-Feb-22 07:33N 35°36' E 139°46'2 2.0
2017-Feb-22 06:33N 35°38' E 139°45'0 0.0
2017-Feb-22 05:33N 35°38' E 139°45'0 0.0
2017-Feb-22 04:33N 35°38' E 139°45'0 0.0
2017-Feb-22 03:33N 35°38' E 139°45'0 0.0
2017-Feb-22 02:33N 35°38' E 139°45'0 0.0
2017-Feb-22 01:33N 35°38' E 139°45'0 0.0
2017-Feb-22 00:33N 35°38' E 139°45'0 0.0
2017-Feb-21 23:33N 35°38' E 139°45'2 2.0
2017-Feb-21 22:34N 35°36' E 139°46'0 0.3
2017-Feb-21 21:33N 35°36' E 139°46'2 2.1
2017-Feb-21 20:32N 35°38' E 139°45'0 0.0
2017-Feb-21 19:33N 35°38' E 139°45'0 0.0
2017-Feb-21 18:33N 35°38' E 139°45'0 0.0
2017-Feb-21 17:31N 35°38' E 139°45'0 0.0
2017-Feb-21 16:33N 35°38' E 139°45'0 0.0
2017-Feb-21 15:33N 35°38' E 139°45'0 0.0
2017-Feb-21 14:32N 35°38' E 139°45'0 0.0
2017-Feb-21 13:33N 35°38' E 139°45'0 0.0
2017-Feb-21 12:33N 35°38' E 139°45'0 0.0
2017-Feb-21 11:33N 35°38' E 139°45'0 0.0
2017-Feb-21 10:33N 35°38' E 139°45'3 2.8
2017-Feb-21 09:33N 35°36' E 139°47'3 2.7
2017-Feb-21 08:33N 35°38' E 139°45'2 2.1
2017-Feb-21 07:33N 35°36' E 139°47'2 2.0
2017-Feb-21 06:27N 35°38' E 139°45'0 0.0
2017-Feb-21 05:27N 35°38' E 139°45'0 0.0
2017-Feb-21 04:28N 35°38' E 139°45'0 0.0
2017-Feb-21 03:32N 35°38' E 139°45'3 2.8
2017-Feb-21 02:33N 35°36' E 139°47'3 2.7
2017-Feb-21 01:33N 35°38' E 139°45'0 0.0
2017-Feb-21 00:32N 35°38' E 139°45'0 0.0
2017-Feb-20 23:33N 35°38' E 139°45'0 0.0
2017-Feb-20 22:25N 35°38' E 139°45'0 0.0
2017-Feb-20 18:33N 35°38' E 139°45'0 0.0
2017-Feb-20 17:33N 35°38' E 139°45'0 0.0
2017-Feb-20 16:33N 35°38' E 139°45'0 0.0
2017-Feb-20 15:32N 35°38' E 139°45'0 0.0
2017-Feb-20 14:33N 35°38' E 139°45'0 0.0
2017-Feb-20 13:32N 35°38' E 139°45'0 0.0
2017-Feb-20 12:31N 35°38' E 139°45'0 0.0
2017-Feb-20 11:07N 35°38' E 139°45'0 0.0
2017-Feb-20 10:14N 35°38' E 139°45'3 4.1
2017-Feb-20 09:33N 35°36' E 139°47'1 0.9
2017-Feb-20 08:33N 35°36' E 139°46'2 2.4
2017-Feb-20 07:33N 35°38' E 139°45'0 0.0
2017-Feb-20 06:33N 35°38' E 139°45'0 0.0
2017-Feb-20 05:32N 35°38' E 139°45'0 0.0
2017-Feb-20 04:33N 35°38' E 139°45'0 0.0
2017-Feb-20 03:28N 35°38' E 139°45'0 0.0
2017-Feb-20 02:32N 35°38' E 139°45'0 0.0
2017-Feb-20 01:33N 35°38' E 139°45'0 0.0
2017-Feb-20 00:33N 35°38' E 139°45'0 0.0
2017-Feb-19 23:26N 35°38' E 139°45'2 1.8
2017-Feb-19 22:33N 35°37' E 139°46'3 3.0
2017-Feb-19 21:33N 35°35' E 139°48'2 1.7
2017-Feb-19 20:22N 35°36' E 139°46'1 1.2
2017-Feb-19 19:33N 35°37' E 139°47'2 1.9
2017-Feb-19 18:33N 35°38' E 139°46'0 0.0
2017-Feb-19 17:33N 35°38' E 139°45'0 0.0
2017-Feb-19 16:33N 35°38' E 139°45'0 0.0
2017-Feb-19 15:33N 35°38' E 139°45'0 0.0
2017-Feb-19 14:26N 35°38' E 139°45'0 0.0
2017-Feb-19 13:32N 35°38' E 139°45'0 0.0
2017-Feb-19 12:32N 35°38' E 139°45'0 0.0
2017-Feb-19 11:33N 35°38' E 139°45'0 0.0
2017-Feb-19 10:33N 35°38' E 139°45'0 0.0
2017-Feb-19 09:33N 35°38' E 139°45'0 0.0
2017-Feb-19 08:33N 35°38' E 139°45'0 0.0
2017-Feb-19 07:33N 35°38' E 139°45'0 0.0
2017-Feb-19 06:33N 35°38' E 139°45'0 0.0
2017-Feb-19 05:32N 35°38' E 139°45'0 0.0
2017-Feb-19 04:33N 35°38' E 139°45'0 0.0
2017-Feb-19 03:33N 35°38' E 139°45'0 0.0
2017-Feb-19 02:32N 35°38' E 139°45'0 0.0
2017-Feb-19 01:32N 35°38' E 139°45'0 0.0
2017-Feb-19 00:33N 35°38' E 139°45'0 0.0
2017-Feb-18 23:33N 35°38' E 139°45'0 0.0
2017-Feb-18 22:33N 35°38' E 139°45'0 0.0
2017-Feb-18 21:33N 35°38' E 139°45'0 0.0
2017-Feb-18 20:33N 35°38' E 139°45'0 0.0
2017-Feb-18 19:32N 35°38' E 139°45'0 0.0
2017-Feb-18 18:33N 35°38' E 139°45'0 0.0
2017-Feb-18 17:32N 35°38' E 139°45'0 0.0
2017-Feb-18 16:33N 35°38' E 139°45'0 0.0
2017-Feb-18 15:32N 35°38' E 139°45'0 0.0
2017-Feb-18 14:32N 35°38' E 139°45'0 0.0
2017-Feb-18 13:33N 35°38' E 139°45'0 0.0
2017-Feb-18 12:33N 35°38' E 139°45'0 0.0
2017-Feb-18 11:31N 35°38' E 139°45'0 0.0
2017-Feb-18 10:33N 35°38' E 139°45'0 0.1
2017-Feb-18 09:33N 35°38' E 139°45'3 3.2
2017-Feb-18 08:33N 35°35' E 139°47'1 0.7
2017-Feb-18 07:33N 35°35' E 139°47'0 0.0
2017-Feb-18 06:32N 35°35' E 139°47'0 0.0
2017-Feb-18 05:33N 35°35' E 139°47'1 1.0
2017-Feb-18 04:33N 35°36' E 139°46'2 2.1
2017-Feb-18 03:33N 35°38' E 139°45'0 0.0
2017-Feb-18 02:32N 35°38' E 139°45'0 0.0
2017-Feb-18 01:32N 35°38' E 139°45'0 0.0
2017-Feb-18 00:33N 35°38' E 139°45'0 0.0
2017-Feb-17 23:33N 35°38' E 139°45'0 0.0
2017-Feb-17 22:30N 35°38' E 139°45'0 0.0
2017-Feb-17 21:32N 35°38' E 139°45'0 0.0
2017-Feb-17 20:33N 35°38' E 139°45'0 0.0
2017-Feb-17 19:33N 35°38' E 139°45'0 0.0
2017-Feb-17 18:33N 35°38' E 139°45'0 0.0
2017-Feb-17 17:33N 35°38' E 139°45'0 0.0
2017-Feb-17 16:33N 35°38' E 139°45'0 0.0
2017-Feb-17 15:33N 35°38' E 139°45'0 0.0
2017-Feb-17 14:33N 35°38' E 139°45'0 0.0
2017-Feb-17 13:33N 35°38' E 139°45'0 0.0
2017-Feb-17 12:33N 35°38' E 139°45'0 0.0
2017-Feb-17 11:31N 35°38' E 139°45'0 0.0
2017-Feb-17 10:33N 35°38' E 139°45'5 5.4
2017-Feb-17 09:33N 35°35' E 139°51'3 2.7
2017-Feb-17 08:33N 35°37' E 139°48'2 2.3
2017-Feb-17 07:33N 35°38' E 139°46'1 0.5
2017-Feb-17 06:33N 35°38' E 139°45'0 0.0
2017-Feb-17 05:33N 35°38' E 139°45'0 0.0
2017-Feb-17 04:33N 35°38' E 139°45'0 0.0
2017-Feb-17 03:33N 35°38' E 139°45'0 0.0
2017-Feb-17 02:33N 35°38' E 139°45'0 0.0
2017-Feb-17 01:33N 35°38' E 139°45'0 0.0
2017-Feb-17 00:33N 35°38' E 139°45'0 0.0
2017-Feb-16 23:33N 35°38' E 139°45'0 0.0
2017-Feb-16 22:33N 35°38' E 139°45'0 0.0
2017-Feb-16 21:32N 35°38' E 139°45'0 0.0
2017-Feb-16 20:33N 35°38' E 139°45'0 0.0
2017-Feb-16 19:21N 35°38' E 139°46'0 0.1
2017-Feb-16 18:33N 35°38' E 139°45'0 0.0
2017-Feb-16 17:33N 35°38' E 139°45'0 0.0
2017-Feb-16 16:33N 35°38' E 139°45'0 0.0
2017-Feb-16 15:31N 35°38' E 139°45'0 0.0
2017-Feb-16 14:33N 35°38' E 139°45'0 0.0
2017-Feb-16 13:15N 35°38' E 139°45'0 0.0
2017-Feb-16 12:25N 35°38' E 139°45'0 0.0
2017-Feb-16 11:30N 35°38' E 139°45'0 0.0
2017-Feb-16 10:32N 35°38' E 139°45'0 0.0
2017-Feb-16 09:33N 35°38' E 139°45'0 0.0
2017-Feb-16 08:33N 35°38' E 139°45'0 0.0
2017-Feb-16 07:33N 35°38' E 139°45'  
Track history (hours):
 
Tides and Currents Weather Stations Pressure Air Temp Water Temp Dewpoint Dewpoint Depression Visibility Wind Speed Wind Dir Waves Ship Positions

Asukamaru

Last reported at 2017-Feb-26 07:33 UTC. Time now 2017-Feb-26 07:49 UTC.
Position N 35°38' E 139°45'.

Length 31 m; draft 3 m.

Type: Tug. MMSI: 431001145.

Date/timePositionNaut miles runAvg speedWind from/ knotsBaromVisibWave heightAir tempDewpointWater temp
2017-Feb-26 07:33N 35°38' E 139°45'0 0.0
2017-Feb-26 06:33N 35°38' E 139°45'0 0.0
2017-Feb-26 05:33N 35°38' E 139°45'0 0.0
2017-Feb-26 04:33N 35°38' E 139°45'0 0.0
2017-Feb-26 03:33N 35°38' E 139°45'0 0.0
2017-Feb-26 02:33N 35°38' E 139°45'0 0.0
2017-Feb-26 01:33N 35°38' E 139°45'0 0.0
2017-Feb-26 00:33N 35°38' E 139°45'0 0.0
2017-Feb-25 23:33N 35°38' E 139°45'0 0.0
2017-Feb-25 22:33N 35°38' E 139°45'2 1.7
2017-Feb-25 21:33N 35°37' E 139°46'2 1.6
2017-Feb-25 20:34N 35°38' E 139°45'0 0.1
2017-Feb-25 19:33N 35°38' E 139°45'0 0.0
2017-Feb-25 18:33N 35°38' E 139°45'0 0.0
2017-Feb-25 17:33N 35°38' E 139°45'0 0.0
2017-Feb-25 16:24N 35°38' E 139°45'0 0.0
2017-Feb-25 14:07N 35°38' E 139°45'0 0.0
2017-Feb-25 13:19N 35°38' E 139°45'0 0.0
2017-Feb-25 12:31N 35°38' E 139°45'0 0.0
2017-Feb-25 11:33N 35°38' E 139°45'0 0.0
2017-Feb-25 10:33N 35°38' E 139°45'0 0.0
2017-Feb-25 09:33N 35°38' E 139°45'0 0.0
2017-Feb-25 08:33N 35°38' E 139°45'0 0.0
2017-Feb-25 07:33N 35°38' E 139°45'0 0.0
2017-Feb-25 06:33N 35°38' E 139°45'0 0.0
2017-Feb-25 05:33N 35°38' E 139°45'0 0.0
2017-Feb-25 04:33N 35°38' E 139°45'0 0.0
2017-Feb-25 03:33N 35°38' E 139°45'0 0.0
2017-Feb-25 02:33N 35°38' E 139°45'0 0.0
2017-Feb-25 01:33N 35°38' E 139°45'0 0.0
2017-Feb-25 00:33N 35°38' E 139°45'0 0.0
2017-Feb-24 23:33N 35°38' E 139°45'0 0.0
2017-Feb-24 22:33N 35°38' E 139°45'0 0.0
2017-Feb-24 21:33N 35°38' E 139°45'0 0.0
2017-Feb-24 20:33N 35°38' E 139°45'0 0.0
2017-Feb-24 19:30N 35°38' E 139°45'0 0.0
2017-Feb-24 18:33N 35°38' E 139°45'0 0.0
2017-Feb-24 17:33N 35°38' E 139°45'0 0.0
2017-Feb-24 16:33N 35°38' E 139°45'0 0.0
2017-Feb-24 15:33N 35°38' E 139°45'0 0.0
2017-Feb-24 14:33N 35°38' E 139°45'0 0.0
2017-Feb-24 13:30N 35°38' E 139°45'0 0.0
2017-Feb-24 11:33N 35°38' E 139°45'0 0.0
2017-Feb-24 10:33N 35°38' E 139°45'0 0.0
2017-Feb-24 09:31N 35°38' E 139°45'0 0.0
2017-Feb-24 08:33N 35°38' E 139°45'0 0.0
2017-Feb-24 07:33N 35°38' E 139°45'0 0.0
2017-Feb-24 06:27N 35°38' E 139°45'0 0.0
2017-Feb-24 05:33N 35°38' E 139°45'0 0.0
2017-Feb-24 04:30N 35°38' E 139°45'0 0.0
2017-Feb-24 03:32N 35°38' E 139°45'0 0.0
2017-Feb-24 02:32N 35°38' E 139°45'0 0.0
2017-Feb-24 01:33N 35°38' E 139°45'0 0.0
2017-Feb-24 00:33N 35°38' E 139°45'2 2.3
2017-Feb-23 23:33N 35°37' E 139°48'1 0.9
2017-Feb-23 22:33N 35°36' E 139°47'3 2.7
2017-Feb-23 21:33N 35°34' E 139°48'5 4.8
2017-Feb-23 20:33N 35°38' E 139°45'0 0.0
2017-Feb-23 19:32N 35°38' E 139°45'0 0.0
2017-Feb-23 18:33N 35°38' E 139°45'0 0.0
2017-Feb-23 17:33N 35°38' E 139°45'0 0.0
2017-Feb-23 16:33N 35°38' E 139°45'0 0.0
2017-Feb-23 15:33N 35°38' E 139°45'0 0.0
2017-Feb-23 14:32N 35°38' E 139°45'3 3.0
2017-Feb-23 13:33N 35°36' E 139°47'1 1.4
2017-Feb-23 12:33N 35°37' E 139°46'2 1.6
2017-Feb-23 11:33N 35°38' E 139°45'0 0.0
2017-Feb-23 10:33N 35°38' E 139°45'0 0.0
2017-Feb-23 09:33N 35°38' E 139°45'0 0.0
2017-Feb-23 08:32N 35°38' E 139°45'0 0.0
2017-Feb-23 07:33N 35°38' E 139°45'0 0.0
2017-Feb-23 06:32N 35°38' E 139°45'0 0.0
2017-Feb-23 05:31N 35°38' E 139°46'0 0.1
2017-Feb-23 04:33N 35°38' E 139°45'0 0.0
2017-Feb-23 03:27N 35°38' E 139°45'0 0.0
2017-Feb-23 02:33N 35°38' E 139°45'0 0.0
2017-Feb-23 01:33N 35°38' E 139°45'0 0.0
2017-Feb-23 00:33N 35°38' E 139°45'0 0.0
2017-Feb-22 23:33N 35°38' E 139°45'2 2.1
2017-Feb-22 22:33N 35°36' E 139°47'1 1.0
2017-Feb-22 21:33N 35°35' E 139°47'1 0.9
2017-Feb-22 20:33N 35°36' E 139°46'2 2.0
2017-Feb-22 19:33N 35°38' E 139°45'0 0.0
2017-Feb-22 18:33N 35°38' E 139°45'0 0.0
2017-Feb-22 17:33N 35°38' E 139°45'0 0.0
2017-Feb-22 16:33N 35°38' E 139°45'0 0.0
2017-Feb-22 15:31N 35°38' E 139°45'0 0.0
2017-Feb-22 14:24N 35°38' E 139°45'0 0.0
2017-Feb-22 12:23N 35°38' E 139°45'0 0.0
2017-Feb-22 11:32N 35°38' E 139°45'0 0.0
2017-Feb-22 10:33N 35°38' E 139°45'2 2.1
2017-Feb-22 09:33N 35°36' E 139°46'1 0.9
2017-Feb-22 08:33N 35°35' E 139°47'1 0.9
2017-Feb-22 07:33N 35°36' E 139°46'2 2.0
2017-Feb-22 06:33N 35°38' E 139°45'0 0.0
2017-Feb-22 05:33N 35°38' E 139°45'0 0.0
2017-Feb-22 04:33N 35°38' E 139°45'0 0.0
2017-Feb-22 03:33N 35°38' E 139°45'0 0.0
2017-Feb-22 02:33N 35°38' E 139°45'0 0.0
2017-Feb-22 01:33N 35°38' E 139°45'0 0.0
2017-Feb-22 00:33N 35°38' E 139°45'0 0.0
2017-Feb-21 23:33N 35°38' E 139°45'2 2.0
2017-Feb-21 22:34N 35°36' E 139°46'0 0.3
2017-Feb-21 21:33N 35°36' E 139°46'2 2.1
2017-Feb-21 20:32N 35°38' E 139°45'0 0.0
2017-Feb-21 19:33N 35°38' E 139°45'0 0.0
2017-Feb-21 18:33N 35°38' E 139°45'0 0.0
2017-Feb-21 17:31N 35°38' E 139°45'0 0.0
2017-Feb-21 16:33N 35°38' E 139°45'0 0.0
2017-Feb-21 15:33N 35°38' E 139°45'0 0.0
2017-Feb-21 14:32N 35°38' E 139°45'0 0.0
2017-Feb-21 13:33N 35°38' E 139°45'0 0.0
2017-Feb-21 12:33N 35°38' E 139°45'0 0.0
2017-Feb-21 11:33N 35°38' E 139°45'0 0.0
2017-Feb-21 10:33N 35°38' E 139°45'3 2.8
2017-Feb-21 09:33N 35°36' E 139°47'3 2.7
2017-Feb-21 08:33N 35°38' E 139°45'2 2.1
2017-Feb-21 07:33N 35°36' E 139°47'2 2.0
2017-Feb-21 06:27N 35°38' E 139°45'0 0.0
2017-Feb-21 05:27N 35°38' E 139°45'0 0.0
2017-Feb-21 04:28N 35°38' E 139°45'0 0.0
2017-Feb-21 03:32N 35°38' E 139°45'3 2.8
2017-Feb-21 02:33N 35°36' E 139°47'3 2.7
2017-Feb-21 01:33N 35°38' E 139°45'0 0.0
2017-Feb-21 00:32N 35°38' E 139°45'0 0.0
2017-Feb-20 23:33N 35°38' E 139°45'0 0.0
2017-Feb-20 22:25N 35°38' E 139°45'0 0.0
2017-Feb-20 18:33N 35°38' E 139°45'0 0.0
2017-Feb-20 17:33N 35°38' E 139°45'0 0.0
2017-Feb-20 16:33N 35°38' E 139°45'0 0.0
2017-Feb-20 15:32N 35°38' E 139°45'0 0.0
2017-Feb-20 14:33N 35°38' E 139°45'0 0.0
2017-Feb-20 13:32N 35°38' E 139°45'0 0.0
2017-Feb-20 12:31N 35°38' E 139°45'0 0.0
2017-Feb-20 11:07N 35°38' E 139°45'0 0.0
2017-Feb-20 10:14N 35°38' E 139°45'3 4.1
2017-Feb-20 09:33N 35°36' E 139°47'1 0.9
2017-Feb-20 08:33N 35°36' E 139°46'2 2.4
2017-Feb-20 07:33N 35°38' E 139°45'0 0.0
2017-Feb-20 06:33N 35°38' E 139°45'0 0.0
2017-Feb-20 05:32N 35°38' E 139°45'0 0.0
2017-Feb-20 04:33N 35°38' E 139°45'0 0.0
2017-Feb-20 03:28N 35°38' E 139°45'0 0.0
2017-Feb-20 02:32N 35°38' E 139°45'0 0.0
2017-Feb-20 01:33N 35°38' E 139°45'0 0.0
2017-Feb-20 00:33N 35°38' E 139°45'0 0.0
2017-Feb-19 23:26N 35°38' E 139°45'2 1.8
2017-Feb-19 22:33N 35°37' E 139°46'3 3.0
2017-Feb-19 21:33N 35°35' E 139°48'2 1.7
2017-Feb-19 20:22N 35°36' E 139°46'1 1.2
2017-Feb-19 19:33N 35°37' E 139°47'2 1.9
2017-Feb-19 18:33N 35°38' E 139°46'0 0.0
2017-Feb-19 17:33N 35°38' E 139°45'0 0.0
2017-Feb-19 16:33N 35°38' E 139°45'0 0.0
2017-Feb-19 15:33N 35°38' E 139°45'0 0.0
2017-Feb-19 14:26N 35°38' E 139°45'0 0.0
2017-Feb-19 13:32N 35°38' E 139°45'0 0.0
2017-Feb-19 12:32N 35°38' E 139°45'0 0.0
2017-Feb-19 11:33N 35°38' E 139°45'0 0.0
2017-Feb-19 10:33N 35°38' E 139°45'0 0.0
2017-Feb-19 09:33N 35°38' E 139°45'0 0.0
2017-Feb-19 08:33N 35°38' E 139°45'0 0.0
2017-Feb-19 07:33N 35°38' E 139°45'0 0.0
2017-Feb-19 06:33N 35°38' E 139°45'0 0.0
2017-Feb-19 05:32N 35°38' E 139°45'0 0.0
2017-Feb-19 04:33N 35°38' E 139°45'0 0.0
2017-Feb-19 03:33N 35°38' E 139°45'0 0.0
2017-Feb-19 02:32N 35°38' E 139°45'0 0.0
2017-Feb-19 01:32N 35°38' E 139°45'0 0.0
2017-Feb-19 00:33N 35°38' E 139°45'0 0.0
2017-Feb-18 23:33N 35°38' E 139°45'0 0.0
2017-Feb-18 22:33N 35°38' E 139°45'0 0.0
2017-Feb-18 21:33N 35°38' E 139°45'0 0.0
2017-Feb-18 20:33N 35°38' E 139°45'0 0.0
2017-Feb-18 19:32N 35°38' E 139°45'0 0.0
2017-Feb-18 18:33N 35°38' E 139°45'0 0.0
2017-Feb-18 17:32N 35°38' E 139°45'0 0.0
2017-Feb-18 16:33N 35°38' E 139°45'0 0.0
2017-Feb-18 15:32N 35°38' E 139°45'0 0.0
2017-Feb-18 14:32N 35°38' E 139°45'0 0.0
2017-Feb-18 13:33N 35°38' E 139°45'0 0.0
2017-Feb-18 12:33N 35°38' E 139°45'0 0.0
2017-Feb-18 11:31N 35°38' E 139°45'0 0.0
2017-Feb-18 10:33N 35°38' E 139°45'0 0.1
2017-Feb-18 09:33N 35°38' E 139°45'3 3.2
2017-Feb-18 08:33N 35°35' E 139°47'1 0.7
2017-Feb-18 07:33N 35°35' E 139°47'0 0.0
2017-Feb-18 06:32N 35°35' E 139°47'0 0.0
2017-Feb-18 05:33N 35°35' E 139°47'1 1.0
2017-Feb-18 04:33N 35°36' E 139°46'2 2.1
2017-Feb-18 03:33N 35°38' E 139°45'0 0.0
2017-Feb-18 02:32N 35°38' E 139°45'0 0.0
2017-Feb-18 01:32N 35°38' E 139°45'0 0.0
2017-Feb-18 00:33N 35°38' E 139°45'0 0.0
2017-Feb-17 23:33N 35°38' E 139°45'0 0.0
2017-Feb-17 22:30N 35°38' E 139°45'0 0.0
2017-Feb-17 21:32N 35°38' E 139°45'0 0.0
2017-Feb-17 20:33N 35°38' E 139°45'0 0.0
2017-Feb-17 19:33N 35°38' E 139°45'0 0.0
2017-Feb-17 18:33N 35°38' E 139°45'0 0.0
2017-Feb-17 17:33N 35°38' E 139°45'0 0.0
2017-Feb-17 16:33N 35°38' E 139°45'0 0.0
2017-Feb-17 15:33N 35°38' E 139°45'0 0.0
2017-Feb-17 14:33N 35°38' E 139°45'0 0.0
2017-Feb-17 13:33N 35°38' E 139°45'0 0.0
2017-Feb-17 12:33N 35°38' E 139°45'0 0.0
2017-Feb-17 11:31N 35°38' E 139°45'0 0.0
2017-Feb-17 10:33N 35°38' E 139°45'5 5.4
2017-Feb-17 09:33N 35°35' E 139°51'3 2.7
2017-Feb-17 08:33N 35°37' E 139°48'2 2.3
2017-Feb-17 07:33N 35°38' E 139°46'1 0.5
2017-Feb-17 06:33N 35°38' E 139°45'0 0.0
2017-Feb-17 05:33N 35°38' E 139°45'0 0.0
2017-Feb-17 04:33N 35°38' E 139°45'0 0.0
2017-Feb-17 03:33N 35°38' E 139°45'0 0.0
2017-Feb-17 02:33N 35°38' E 139°45'0 0.0
2017-Feb-17 01:33N 35°38' E 139°45'0 0.0
2017-Feb-17 00:33N 35°38' E 139°45'0 0.0
2017-Feb-16 23:33N 35°38' E 139°45'0 0.0
2017-Feb-16 22:33N 35°38' E 139°45'0 0.0
2017-Feb-16 21:32N 35°38' E 139°45'0 0.0
2017-Feb-16 20:33N 35°38' E 139°45'0 0.0
2017-Feb-16 19:21N 35°38' E 139°46'0 0.1
2017-Feb-16 18:33N 35°38' E 139°45'0 0.0
2017-Feb-16 17:33N 35°38' E 139°45'0 0.0
2017-Feb-16 16:33N 35°38' E 139°45'0 0.0
2017-Feb-16 15:31N 35°38' E 139°45'0 0.0
2017-Feb-16 14:33N 35°38' E 139°45'0 0.0
2017-Feb-16 13:15N 35°38' E 139°45'0 0.0
2017-Feb-16 12:25N 35°38' E 139°45'0 0.0
2017-Feb-16 11:30N 35°38' E 139°45'0 0.0
2017-Feb-16 10:32N 35°38' E 139°45'0 0.0
2017-Feb-16 09:33N 35°38' E 139°45'0 0.0
2017-Feb-16 08:33N 35°38' E 139°45'0 0.0
2017-Feb-16 07:33N 35°38' E 139°45'  

Dump ship's entire track history